Etusivu
METAR-TAF:

METAR-TAF

Lentoasemat :

Alderney,

Leveyspiiri: 49-43N, Pituuspiiri: 002-12W, korkeus merenpinnasta: 71 m

Tämänhetkinen sää

Tämä raportti tehtiin 12 tuntia ja 5 minuuttia sitten, kello 17.50 UTC
Tuuli 7 kn idästä/koillisesta
Lämpötila 10°C
Kosteus 82%
Ilmanpaine 1032 hPa
Näkyvyys 10 km tai enemmän
ei pilviä alle 1500 m:ssä eikä cumulonimbus-pilviä

METAR: EGJA 231750Z 07007KT CAVOK 10/07 Q1032

Aika: 05:55 (05:55 UTC)

Sääennuste

Tämä raportti tehtiin 15 tuntia ja 55 minuuttia sitten, kello 14.00 UTC
Ennuste voimassa 23. päivästä klo 15 UTC - 23. päivään klo 19 UTC
Tuuli 8 kn idästä/kaakosta
Näkyvyys 10 km tai enemmän
ei pilviä alle 1500 m:ssä eikä cumulonimbus-pilviä
Todennäköisyys 40% :
Ajoittain
23. päivästä klo 15 UTC - 23. päivään klo 19 UTC
Näkyvyys: 8000 m

TAF: EGJA 231400Z 2315/2319 12008KT CAVOK PROB40 TEMPO 2315/2319 8000

Säähavainnot ja -ennusteet yli 4000 lentoasemalta (METAR- ja TAF-raportit).

Käytössä olevat sääasemat on merkitty karttaan keltaisilla ja punaisilla pisteillä.

Aseta hiiri pisteen päälle nähdäksesi sääaseman nimen.

Klikkaa sitten nähdäksesi säähavainnot ja -ennusteet.

Kartan vaihtaminen: klikkaa mustalla rastilla varustettuja vihreitä pisteitä, niin voit zoomata sisään; viivalla varustettua vihreää pistettä, niin voit zoomata ulos tai vihreitä nuolia, niin pääset viereisille kartoille.


METAR-TAF: